sensor_id;sensor_type;location;lat;lon;timestamp;P1;durP1;ratioP1;P2;durP2;ratioP2
11135;SDS011;5622;50.840;4.948;2023-10-09T10:05:46;14.07;;;7.33;;
11135;SDS011;5622;50.840;4.948;2023-10-09T10:08:16;13.20;;;7.80;;
11135;SDS011;5622;50.840;4.948;2023-10-09T10:10:45;10.60;;;7.23;;
11135;SDS011;5622;50.840;4.948;2023-10-09T10:16:25;12.73;;;7.87;;
11135;SDS011;5622;50.840;4.948;2023-10-09T10:19:00;14.77;;;7.83;;
11135;SDS011;5622;50.840;4.948;2023-10-09T10:21:48;12.57;;;7.30;;
11135;SDS011;5622;50.840;4.948;2023-10-09T10:27:20;14.97;;;8.43;;
11135;SDS011;5622;50.840;4.948;2023-10-09T10:33:02;12.67;;;8.10;;
11135;SDS011;5622;50.840;4.948;2023-10-09T10:35:37;16.13;;;7.90;;
11135;SDS011;5622;50.840;4.948;2023-10-09T10:38:32;16.87;;;8.73;;
11135;SDS011;5622;50.840;4.948;2023-10-09T10:41:08;17.20;;;7.50;;
11135;SDS011;5622;50.840;4.948;2023-10-09T10:43:41;17.80;;;8.43;;
11135;SDS011;5622;50.840;4.948;2023-10-09T10:46:22;16.47;;;9.27;;
11135;SDS011;5622;50.840;4.948;2023-10-09T10:49:04;15.37;;;8.30;;
11135;SDS011;5622;50.840;4.948;2023-10-09T10:51:45;18.40;;;8.27;;
11135;SDS011;5622;50.840;4.948;2023-10-09T10:54:27;12.90;;;7.07;;
11135;SDS011;5622;50.840;4.948;2023-10-09T10:57:18;14.87;;;7.70;;
11135;SDS011;5622;50.840;4.948;2023-10-09T11:00:18;14.47;;;6.80;;
11135;SDS011;5622;50.840;4.948;2023-10-09T11:03:01;10.50;;;6.87;;
11135;SDS011;5622;50.840;4.948;2023-10-09T11:05:42;14.20;;;8.00;;
11135;SDS011;5622;50.840;4.948;2023-10-09T11:08:15;14.13;;;8.20;;
11135;SDS011;5622;50.840;4.948;2023-10-09T11:10:49;12.73;;;7.53;;
11135;SDS011;5622;50.840;4.948;2023-10-09T11:13:23;12.97;;;7.13;;
11135;SDS011;5622;50.840;4.948;2023-10-09T11:15:58;16.10;;;7.63;;
11135;SDS011;5622;50.840;4.948;2023-10-09T11:18:39;11.63;;;7.00;;
11135;SDS011;5622;50.840;4.948;2023-10-09T11:21:12;16.27;;;7.50;;
11135;SDS011;5622;50.840;4.948;2023-10-09T11:23:59;12.07;;;7.60;;
11135;SDS011;5622;50.840;4.948;2023-10-09T11:26:51;11.87;;;6.30;;
11135;SDS011;5622;50.840;4.948;2023-10-09T11:29:22;10.37;;;5.70;;
11135;SDS011;5622;50.840;4.948;2023-10-09T11:32:01;14.37;;;7.50;;
11135;SDS011;5622;50.840;4.948;2023-10-09T11:34:32;11.60;;;6.67;;
11135;SDS011;5622;50.840;4.948;2023-10-09T11:37:12;11.63;;;6.57;;
11135;SDS011;5622;50.840;4.948;2023-10-09T11:39:41;11.27;;;6.93;;
11135;SDS011;5622;50.840;4.948;2023-10-09T11:42:19;12.47;;;7.17;;
11135;SDS011;5622;50.840;4.948;2023-10-09T11:45:01;13.47;;;6.53;;
11135;SDS011;5622;50.840;4.948;2023-10-09T11:47:45;12.77;;;7.67;;
11135;SDS011;5622;50.840;4.948;2023-10-09T11:50:32;9.67;;;6.67;;
11135;SDS011;5622;50.840;4.948;2023-10-09T11:53:08;9.93;;;6.97;;
11135;SDS011;5622;50.840;4.948;2023-10-09T11:55:46;12.00;;;6.70;;
11135;SDS011;5622;50.840;4.948;2023-10-09T11:58:17;12.37;;;6.70;;
11135;SDS011;5622;50.840;4.948;2023-10-09T12:00:49;13.23;;;6.70;;
11135;SDS011;5622;50.840;4.948;2023-10-09T12:03:22;14.17;;;7.03;;
11135;SDS011;5622;50.840;4.948;2023-10-09T12:05:54;13.07;;;5.97;;
11135;SDS011;5622;50.840;4.948;2023-10-09T12:08:23;13.57;;;6.37;;
11135;SDS011;5622;50.840;4.948;2023-10-09T12:10:55;10.63;;;6.43;;
11135;SDS011;5622;50.840;4.948;2023-10-09T12:13:23;10.63;;;6.43;;
11135;SDS011;5622;50.840;4.948;2023-10-09T12:15:51;9.83;;;6.47;;
11135;SDS011;5622;50.840;4.948;2023-10-09T12:18:33;13.77;;;6.10;;
11135;SDS011;5622;50.840;4.948;2023-10-09T12:21:01;14.07;;;7.07;;
11135;SDS011;5622;50.840;4.948;2023-10-09T12:23:31;12.47;;;6.67;;
11135;SDS011;5622;50.840;4.948;2023-10-09T12:26:01;12.80;;;6.67;;
11135;SDS011;5622;50.840;4.948;2023-10-09T12:28:30;8.53;;;6.47;;
11135;SDS011;5622;50.840;4.948;2023-10-09T12:30:59;12.60;;;6.87;;
11135;SDS011;5622;50.840;4.948;2023-10-09T12:33:27;11.60;;;6.60;;
11135;SDS011;5622;50.840;4.948;2023-10-09T12:35:55;12.23;;;7.07;;
11135;SDS011;5622;50.840;4.948;2023-10-09T12:38:25;14.57;;;5.80;;
11135;SDS011;5622;50.840;4.948;2023-10-09T12:41:00;9.47;;;5.73;;
11135;SDS011;5622;50.840;4.948;2023-10-09T12:43:35;11.00;;;6.20;;
11135;SDS011;5622;50.840;4.948;2023-10-09T12:46:06;9.30;;;5.80;;
11135;SDS011;5622;50.840;4.948;2023-10-09T12:48:33;11.17;;;5.57;;
11135;SDS011;5622;50.840;4.948;2023-10-09T12:51:01;12.27;;;6.07;;
11135;SDS011;5622;50.840;4.948;2023-10-09T12:53:31;7.97;;;5.80;;
11135;SDS011;5622;50.840;4.948;2023-10-09T12:56:00;8.77;;;6.03;;
11135;SDS011;5622;50.840;4.948;2023-10-09T12:58:29;9.47;;;6.20;;
11135;SDS011;5622;50.840;4.948;2023-10-09T13:00:58;8.43;;;5.60;;
11135;SDS011;5622;50.840;4.948;2023-10-09T13:03:34;10.67;;;6.00;;
11135;SDS011;5622;50.840;4.948;2023-10-09T13:06:03;8.63;;;5.70;;
11135;SDS011;5622;50.840;4.948;2023-10-09T13:08:35;13.27;;;6.20;;
11135;SDS011;5622;50.840;4.948;2023-10-09T13:11:06;16.73;;;6.50;;
11135;SDS011;5622;50.840;4.948;2023-10-09T13:13:36;9.00;;;5.73;;
11135;SDS011;5622;50.840;4.948;2023-10-09T13:16:10;9.97;;;5.63;;
11135;SDS011;5622;50.840;4.948;2023-10-09T13:18:46;10.10;;;6.03;;
11135;SDS011;5622;50.840;4.948;2023-10-09T13:21:16;9.10;;;6.17;;
11135;SDS011;5622;50.840;4.948;2023-10-09T13:23:44;8.00;;;5.23;;
11135;SDS011;5622;50.840;4.948;2023-10-09T13:26:16;14.87;;;6.83;;
11135;SDS011;5622;50.840;4.948;2023-10-09T13:28:45;10.07;;;6.93;;
11135;SDS011;5622;50.840;4.948;2023-10-09T13:31:15;10.03;;;6.63;;
11135;SDS011;5622;50.840;4.948;2023-10-09T13:33:44;13.00;;;6.53;;
11135;SDS011;5622;50.840;4.948;2023-10-09T13:36:12;9.63;;;5.93;;
11135;SDS011;5622;50.840;4.948;2023-10-09T13:38:52;9.97;;;6.10;;
11135;SDS011;5622;50.840;4.948;2023-10-09T13:41:20;9.30;;;5.83;;
11135;SDS011;5622;50.840;4.948;2023-10-09T13:43:53;13.30;;;7.23;;
11135;SDS011;5622;50.840;4.948;2023-10-09T13:46:26;10.67;;;6.73;;
11135;SDS011;5622;50.840;4.948;2023-10-09T13:48:55;9.57;;;6.20;;
11135;SDS011;5622;50.840;4.948;2023-10-09T13:51:22;9.20;;;6.40;;
11135;SDS011;5622;50.840;4.948;2023-10-09T13:53:49;15.17;;;6.33;;
11135;SDS011;5622;50.840;4.948;2023-10-09T13:56:19;12.27;;;6.73;;
11135;SDS011;5622;50.840;4.948;2023-10-09T13:58:47;10.73;;;6.10;;
11135;SDS011;5622;50.840;4.948;2023-10-09T14:01:21;11.13;;;6.63;;
11135;SDS011;5622;50.840;4.948;2023-10-09T14:03:59;9.53;;;6.70;;
11135;SDS011;5622;50.840;4.948;2023-10-09T14:06:27;11.00;;;7.47;;
11135;SDS011;5622;50.840;4.948;2023-10-09T14:08:59;12.63;;;7.57;;
11135;SDS011;5622;50.840;4.948;2023-10-09T14:11:29;14.30;;;7.33;;
11135;SDS011;5622;50.840;4.948;2023-10-09T14:13:57;13.13;;;7.73;;
11135;SDS011;5622;50.840;4.948;2023-10-09T14:16:26;10.90;;;7.23;;
11135;SDS011;5622;50.840;4.948;2023-10-09T14:18:54;12.30;;;7.70;;
11135;SDS011;5622;50.840;4.948;2023-10-09T14:21:27;12.97;;;7.70;;
11135;SDS011;5622;50.840;4.948;2023-10-09T14:23:55;13.87;;;7.43;;
11135;SDS011;5622;50.840;4.948;2023-10-09T14:26:24;9.37;;;6.50;;
11135;SDS011;5622;50.840;4.948;2023-10-09T14:28:52;11.30;;;7.47;;
11135;SDS011;5622;50.840;4.948;2023-10-09T14:31:22;13.43;;;7.83;;
11135;SDS011;5622;50.840;4.948;2023-10-09T14:33:53;11.80;;;6.43;;
11135;SDS011;5622;50.840;4.948;2023-10-09T14:36:21;14.03;;;7.70;;
11135;SDS011;5622;50.840;4.948;2023-10-09T14:38:52;11.07;;;6.90;;
11135;SDS011;5622;50.840;4.948;2023-10-09T14:41:20;10.97;;;6.80;;
11135;SDS011;5622;50.840;4.948;2023-10-09T14:43:51;12.27;;;7.17;;
11135;SDS011;5622;50.840;4.948;2023-10-09T14:46:18;16.50;;;7.57;;
11135;SDS011;5622;50.840;4.948;2023-10-09T14:48:50;13.37;;;7.40;;
11135;SDS011;5622;50.840;4.948;2023-10-09T14:51:20;9.70;;;6.37;;
11135;SDS011;5622;50.840;4.948;2023-10-09T14:53:57;13.37;;;6.87;;
11135;SDS011;5622;50.840;4.948;2023-10-09T14:56:26;12.87;;;7.23;;
11135;SDS011;5622;50.840;4.948;2023-10-09T14:58:58;15.57;;;7.70;;
11135;SDS011;5622;50.840;4.948;2023-10-09T15:01:26;13.17;;;7.17;;
11135;SDS011;5622;50.840;4.948;2023-10-09T15:03:56;14.10;;;8.10;;
11135;SDS011;5622;50.840;4.948;2023-10-09T15:06:24;13.33;;;7.80;;
11135;SDS011;5622;50.840;4.948;2023-10-09T15:08:57;12.80;;;7.47;;
11135;SDS011;5622;50.840;4.948;2023-10-09T15:11:33;14.13;;;8.53;;
11135;SDS011;5622;50.840;4.948;2023-10-09T15:14:02;13.50;;;7.80;;
11135;SDS011;5622;50.840;4.948;2023-10-09T15:16:31;15.87;;;7.67;;
11135;SDS011;5622;50.840;4.948;2023-10-09T15:18:58;11.37;;;7.17;;
11135;SDS011;5622;50.840;4.948;2023-10-09T15:21:28;14.70;;;7.70;;
11135;SDS011;5622;50.840;4.948;2023-10-09T15:24:00;12.20;;;7.43;;
11135;SDS011;5622;50.840;4.948;2023-10-09T15:26:27;11.07;;;7.53;;
11135;SDS011;5622;50.840;4.948;2023-10-09T15:29:01;11.83;;;6.60;;
11135;SDS011;5622;50.840;4.948;2023-10-09T15:31:31;16.07;;;7.17;;
11135;SDS011;5622;50.840;4.948;2023-10-09T15:33:59;9.17;;;6.90;;
11135;SDS011;5622;50.840;4.948;2023-10-09T15:36:27;10.67;;;6.30;;
11135;SDS011;5622;50.840;4.948;2023-10-09T15:38:57;13.10;;;7.60;;
11135;SDS011;5622;50.840;4.948;2023-10-09T15:47:43;10.83;;;6.13;;
11135;SDS011;5622;50.840;4.948;2023-10-09T15:50:11;13.03;;;6.97;;
11135;SDS011;5622;50.840;4.948;2023-10-09T15:52:42;10.73;;;6.30;;
11135;SDS011;5622;50.840;4.948;2023-10-09T17:33:58;12.23;;;7.83;;
11135;SDS011;5622;50.840;4.948;2023-10-09T17:36:29;11.73;;;8.20;;
11135;SDS011;5622;50.840;4.948;2023-10-09T17:38:56;11.40;;;7.53;;
11135;SDS011;5622;50.840;4.948;2023-10-09T17:41:38;11.00;;;6.83;;
11135;SDS011;5622;50.840;4.948;2023-10-09T17:44:05;14.83;;;8.57;;
11135;SDS011;5622;50.840;4.948;2023-10-09T17:50:00;10.30;;;7.43;;
11135;SDS011;5622;50.840;4.948;2023-10-09T17:52:29;12.63;;;8.10;;
11135;SDS011;5622;50.840;4.948;2023-10-09T17:54:59;14.27;;;8.73;;
11135;SDS011;5622;50.840;4.948;2023-10-09T17:57:31;10.00;;;7.07;;
11135;SDS011;5622;50.840;4.948;2023-10-09T18:00:01;12.87;;;7.53;;
11135;SDS011;5622;50.840;4.948;2023-10-09T18:02:30;13.57;;;7.60;;
11135;SDS011;5622;50.840;4.948;2023-10-09T18:04:57;10.67;;;6.90;;
11135;SDS011;5622;50.840;4.948;2023-10-09T18:07:26;12.03;;;7.50;;
11135;SDS011;5622;50.840;4.948;2023-10-09T18:09:53;10.60;;;6.67;;
11135;SDS011;5622;50.840;4.948;2023-10-09T18:12:24;9.97;;;7.30;;
11135;SDS011;5622;50.840;4.948;2023-10-09T18:14:51;14.90;;;9.27;;
11135;SDS011;5622;50.840;4.948;2023-10-09T18:17:20;13.23;;;8.20;;
11135;SDS011;5622;50.840;4.948;2023-10-09T18:19:51;13.47;;;7.73;;
11135;SDS011;5622;50.840;4.948;2023-10-09T18:22:19;11.87;;;7.43;;
11135;SDS011;5622;50.840;4.948;2023-10-09T18:24:50;13.53;;;7.40;;
11135;SDS011;5622;50.840;4.948;2023-10-09T18:27:17;15.43;;;8.87;;
11135;SDS011;5622;50.840;4.948;2023-10-09T18:29:45;12.30;;;8.37;;
11135;SDS011;5622;50.840;4.948;2023-10-09T18:32:13;12.30;;;7.70;;
11135;SDS011;5622;50.840;4.948;2023-10-09T18:34:43;13.73;;;8.03;;
11135;SDS011;5622;50.840;4.948;2023-10-09T18:37:10;13.20;;;7.73;;
11135;SDS011;5622;50.840;4.948;2023-10-09T18:39:37;12.17;;;8.07;;
11135;SDS011;5622;50.840;4.948;2023-10-09T18:42:08;12.83;;;8.03;;
11135;SDS011;5622;50.840;4.948;2023-10-09T18:44:35;13.13;;;8.37;;
11135;SDS011;5622;50.840;4.948;2023-10-09T18:47:03;13.80;;;8.07;;
11135;SDS011;5622;50.840;4.948;2023-10-09T18:49:31;14.57;;;8.13;;
11135;SDS011;5622;50.840;4.948;2023-10-09T18:51:58;11.93;;;7.77;;
11135;SDS011;5622;50.840;4.948;2023-10-09T18:54:28;14.43;;;8.00;;
11135;SDS011;5622;50.840;4.948;2023-10-09T18:56:55;12.60;;;8.37;;
11135;SDS011;5622;50.840;4.948;2023-10-09T18:59:24;12.33;;;8.33;;
11135;SDS011;5622;50.840;4.948;2023-10-09T19:01:54;13.07;;;8.00;;
11135;SDS011;5622;50.840;4.948;2023-10-09T19:04:22;15.50;;;8.77;;
11135;SDS011;5622;50.840;4.948;2023-10-09T19:06:51;11.73;;;7.73;;
11135;SDS011;5622;50.840;4.948;2023-10-09T19:09:18;10.30;;;7.67;;
11135;SDS011;5622;50.840;4.948;2023-10-09T19:11:48;12.00;;;8.33;;
11135;SDS011;5622;50.840;4.948;2023-10-09T19:14:15;10.63;;;7.70;;
11135;SDS011;5622;50.840;4.948;2023-10-09T19:16:45;10.90;;;6.77;;
11135;SDS011;5622;50.840;4.948;2023-10-09T19:19:12;11.07;;;7.57;;
11135;SDS011;5622;50.840;4.948;2023-10-09T19:21:40;12.53;;;8.03;;
11135;SDS011;5622;50.840;4.948;2023-10-09T19:24:09;12.73;;;8.00;;
11135;SDS011;5622;50.840;4.948;2023-10-09T19:26:38;10.67;;;7.70;;
11135;SDS011;5622;50.840;4.948;2023-10-09T19:29:07;14.80;;;7.37;;
11135;SDS011;5622;50.840;4.948;2023-10-09T19:31:36;13.77;;;8.57;;
11135;SDS011;5622;50.840;4.948;2023-10-09T19:34:04;12.17;;;8.43;;
11135;SDS011;5622;50.840;4.948;2023-10-09T19:36:32;11.60;;;7.07;;
11135;SDS011;5622;50.840;4.948;2023-10-09T19:39:02;13.60;;;8.00;;
11135;SDS011;5622;50.840;4.948;2023-10-09T19:41:30;13.83;;;8.00;;
11135;SDS011;5622;50.840;4.948;2023-10-09T19:44:00;13.70;;;8.17;;
11135;SDS011;5622;50.840;4.948;2023-10-09T19:46:29;11.63;;;8.33;;
11135;SDS011;5622;50.840;4.948;2023-10-09T19:48:58;15.73;;;9.77;;
11135;SDS011;5622;50.840;4.948;2023-10-09T19:51:36;13.73;;;9.80;;
11135;SDS011;5622;50.840;4.948;2023-10-09T19:54:07;14.97;;;10.70;;
11135;SDS011;5622;50.840;4.948;2023-10-09T19:56:35;14.50;;;10.33;;
11135;SDS011;5622;50.840;4.948;2023-10-09T19:59:02;13.93;;;10.40;;
11135;SDS011;5622;50.840;4.948;2023-10-09T20:01:31;14.67;;;10.10;;
11135;SDS011;5622;50.840;4.948;2023-10-09T20:03:58;16.80;;;10.77;;
11135;SDS011;5622;50.840;4.948;2023-10-09T20:06:25;13.90;;;10.93;;
11135;SDS011;5622;50.840;4.948;2023-10-09T20:08:54;17.53;;;11.40;;
11135;SDS011;5622;50.840;4.948;2023-10-09T20:11:21;17.73;;;11.37;;
11135;SDS011;5622;50.840;4.948;2023-10-09T20:13:48;15.73;;;10.37;;
11135;SDS011;5622;50.840;4.948;2023-10-09T20:16:18;15.33;;;10.70;;
11135;SDS011;5622;50.840;4.948;2023-10-09T20:18:49;17.00;;;10.63;;
11135;SDS011;5622;50.840;4.948;2023-10-09T20:21:22;21.10;;;10.90;;
11135;SDS011;5622;50.840;4.948;2023-10-09T20:23:50;15.93;;;11.33;;
11135;SDS011;5622;50.840;4.948;2023-10-09T20:26:20;16.50;;;10.63;;
11135;SDS011;5622;50.840;4.948;2023-10-09T20:28:48;15.53;;;10.43;;
11135;SDS011;5622;50.840;4.948;2023-10-09T20:31:15;15.30;;;10.67;;
11135;SDS011;5622;50.840;4.948;2023-10-09T20:33:42;14.00;;;10.87;;
11135;SDS011;5622;50.840;4.948;2023-10-09T20:36:09;16.07;;;10.30;;
11135;SDS011;5622;50.840;4.948;2023-10-09T20:38:40;17.97;;;10.77;;
11135;SDS011;5622;50.840;4.948;2023-10-09T20:41:14;15.70;;;9.53;;
11135;SDS011;5622;50.840;4.948;2023-10-09T20:43:41;17.23;;;10.70;;
11135;SDS011;5622;50.840;4.948;2023-10-09T20:46:09;16.23;;;10.37;;
11135;SDS011;5622;50.840;4.948;2023-10-09T20:48:40;13.60;;;9.90;;
11135;SDS011;5622;50.840;4.948;2023-10-09T20:51:09;15.30;;;10.43;;
11135;SDS011;5622;50.840;4.948;2023-10-09T20:53:37;18.67;;;10.17;;
11135;SDS011;5622;50.840;4.948;2023-10-09T20:56:05;15.40;;;10.30;;
11135;SDS011;5622;50.840;4.948;2023-10-09T20:58:35;16.27;;;10.40;;
11135;SDS011;5622;50.840;4.948;2023-10-09T21:01:05;14.77;;;10.47;;
11135;SDS011;5622;50.840;4.948;2023-10-09T21:03:39;14.63;;;10.03;;
11135;SDS011;5622;50.840;4.948;2023-10-09T21:06:08;14.47;;;8.93;;
11135;SDS011;5622;50.840;4.948;2023-10-09T21:08:37;15.13;;;9.97;;
11135;SDS011;5622;50.840;4.948;2023-10-09T21:11:04;14.70;;;9.87;;
11135;SDS011;5622;50.840;4.948;2023-10-09T21:13:35;15.63;;;10.40;;
11135;SDS011;5622;50.840;4.948;2023-10-09T21:16:03;14.27;;;9.77;;
11135;SDS011;5622;50.840;4.948;2023-10-09T21:18:30;15.93;;;10.60;;
11135;SDS011;5622;50.840;4.948;2023-10-09T21:21:00;17.00;;;10.43;;
11135;SDS011;5622;50.840;4.948;2023-10-09T21:23:31;16.53;;;10.90;;
11135;SDS011;5622;50.840;4.948;2023-10-09T21:25:58;19.67;;;11.37;;
11135;SDS011;5622;50.840;4.948;2023-10-09T21:28:26;16.33;;;11.47;;
11135;SDS011;5622;50.840;4.948;2023-10-09T21:30:54;15.57;;;11.17;;
11135;SDS011;5622;50.840;4.948;2023-10-09T21:33:21;17.83;;;12.23;;
11135;SDS011;5622;50.840;4.948;2023-10-09T21:35:49;21.20;;;12.67;;
11135;SDS011;5622;50.840;4.948;2023-10-09T21:38:20;19.80;;;12.47;;
11135;SDS011;5622;50.840;4.948;2023-10-09T21:40:49;17.13;;;12.60;;
11135;SDS011;5622;50.840;4.948;2023-10-09T21:43:16;16.20;;;11.83;;
11135;SDS011;5622;50.840;4.948;2023-10-09T21:45:44;18.03;;;11.93;;
11135;SDS011;5622;50.840;4.948;2023-10-09T21:48:13;19.47;;;13.00;;
11135;SDS011;5622;50.840;4.948;2023-10-09T21:50:42;17.27;;;12.63;;
11135;SDS011;5622;50.840;4.948;2023-10-09T21:53:10;21.13;;;12.80;;
11135;SDS011;5622;50.840;4.948;2023-10-09T21:55:37;19.73;;;12.93;;
11135;SDS011;5622;50.840;4.948;2023-10-09T21:58:06;19.50;;;12.87;;
11135;SDS011;5622;50.840;4.948;2023-10-09T22:00:35;19.90;;;13.37;;
11135;SDS011;5622;50.840;4.948;2023-10-09T22:03:03;17.23;;;12.17;;
11135;SDS011;5622;50.840;4.948;2023-10-09T22:05:34;17.07;;;12.10;;
11135;SDS011;5622;50.840;4.948;2023-10-09T22:08:07;18.57;;;13.63;;
11135;SDS011;5622;50.840;4.948;2023-10-09T22:10:35;23.60;;;14.03;;
11135;SDS011;5622;50.840;4.948;2023-10-09T22:13:02;20.70;;;14.73;;
11135;SDS011;5622;50.840;4.948;2023-10-09T22:15:30;20.73;;;13.67;;
11135;SDS011;5622;50.840;4.948;2023-10-09T22:17:59;20.07;;;13.60;;
11135;SDS011;5622;50.840;4.948;2023-10-09T22:20:37;23.63;;;14.00;;
11135;SDS011;5622;50.840;4.948;2023-10-09T22:23:04;22.53;;;13.47;;
11135;SDS011;5622;50.840;4.948;2023-10-09T22:25:36;19.87;;;12.93;;
11135;SDS011;5622;50.840;4.948;2023-10-09T22:28:11;18.47;;;12.47;;
11135;SDS011;5622;50.840;4.948;2023-10-09T22:30:39;20.33;;;14.10;;
11135;SDS011;5622;50.840;4.948;2023-10-09T22:33:08;19.83;;;13.10;;
11135;SDS011;5622;50.840;4.948;2023-10-09T22:35:51;18.67;;;12.73;;
11135;SDS011;5622;50.840;4.948;2023-10-09T22:38:20;20.70;;;13.63;;
11135;SDS011;5622;50.840;4.948;2023-10-09T22:40:48;24.27;;;13.23;;
11135;SDS011;5622;50.840;4.948;2023-10-09T22:46:04;19.53;;;13.37;;
11135;SDS011;5622;50.840;4.948;2023-10-09T22:48:33;28.80;;;13.30;;
11135;SDS011;5622;50.840;4.948;2023-10-09T22:51:08;17.43;;;13.00;;
11135;SDS011;5622;50.840;4.948;2023-10-09T22:53:35;20.50;;;13.60;;
11135;SDS011;5622;50.840;4.948;2023-10-09T22:56:08;17.03;;;11.77;;
11135;SDS011;5622;50.840;4.948;2023-10-09T22:58:37;15.47;;;12.37;;
11135;SDS011;5622;50.840;4.948;2023-10-09T23:01:15;26.33;;;13.33;;
11135;SDS011;5622;50.840;4.948;2023-10-09T23:03:47;20.53;;;13.27;;
11135;SDS011;5622;50.840;4.948;2023-10-09T23:06:36;16.03;;;11.63;;
11135;SDS011;5622;50.840;4.948;2023-10-09T23:09:09;18.93;;;13.30;;
11135;SDS011;5622;50.840;4.948;2023-10-09T23:11:40;17.73;;;13.27;;
11135;SDS011;5622;50.840;4.948;2023-10-09T23:17:11;18.13;;;12.60;;
11135;SDS011;5622;50.840;4.948;2023-10-09T23:19:43;17.90;;;12.67;;
11135;SDS011;5622;50.840;4.948;2023-10-09T23:22:21;19.90;;;12.43;;
11135;SDS011;5622;50.840;4.948;2023-10-09T23:25:02;18.70;;;12.73;;
11135;SDS011;5622;50.840;4.948;2023-10-09T23:27:37;21.10;;;13.73;;
11135;SDS011;5622;50.840;4.948;2023-10-09T23:30:25;22.40;;;13.97;;
11135;SDS011;5622;50.840;4.948;2023-10-09T23:32:53;16.93;;;12.43;;
11135;SDS011;5622;50.840;4.948;2023-10-09T23:35:39;23.63;;;13.60;;
11135;SDS011;5622;50.840;4.948;2023-10-09T23:38:14;21.87;;;14.70;;
11135;SDS011;5622;50.840;4.948;2023-10-09T23:40:46;20.63;;;14.57;;
11135;SDS011;5622;50.840;4.948;2023-10-09T23:43:16;24.33;;;16.13;;
11135;SDS011;5622;50.840;4.948;2023-10-09T23:45:48;23.43;;;16.20;;
11135;SDS011;5622;50.840;4.948;2023-10-09T23:48:22;24.70;;;16.67;;
11135;SDS011;5622;50.840;4.948;2023-10-09T23:50:50;24.73;;;15.60;;
11135;SDS011;5622;50.840;4.948;2023-10-09T23:53:22;22.40;;;14.07;;
11135;SDS011;5622;50.840;4.948;2023-10-09T23:55:54;22.47;;;15.17;;
11135;SDS011;5622;50.840;4.948;2023-10-09T23:58:27;22.87;;;15.73;;
